In Rescue
 
Open Full Screen Window  High Contrast Mode
Wind Gusting 00 knots
09
July 11, 2020 10:52 AM EDT
Weather Information
Wind Direction
  290 °
Wind Speed
  09 kt (10 mph)
Wind Gust
  00 kt (0 mph)
Variable Wind
260°
320°
Altimeter
29.84 in
Visibility
10 SM
Temperature
26° C
79° F
Dewpoint
18° C
64° F
Humidity
61%
1hr Rain Fall
00.01 in.
24hr Rain Fall
00.13 in.
Sky Condition
Clear
VFR

METAR KFPK 111452Z AUTO 29009KT 260V320 10SM CLR 26/18 A2984 RMK AO2 P0001 6//// T02600180

FAA Disclaimer: The data displayed is for advisory purposes only and is not to be used for flight planning or operations.